Napa — WDE8110 — position and weather

sailwx.info

Track history (hours):
 
Tides and Currents Weather Stations Pressure Air Temp Water Temp Dewpoint Dewpoint Depression Visibility Wind Speed Wind Dir Waves Ship Positions

Napa

Owner: Golden Gate Bridge Hwy. and Transportation District, San Francisco, CA. More information available from US FCC via Universal Licensing System and Coast Guard Vessel Documentation Center.

Last reported at 2018-Aug-21 01:11 UTC. Time now 2018-Aug-21 04:19 UTC.
Position N 37°57' W 122°31'.

Length 38 m; draft 0.15 m.

Type: Passenger vessel. MMSI: 36677150.

Date/timePositionNaut miles runAvg speedWind from/ knotsBaromVisibWave heightAir tempDewpointWater temp
2018-Aug-21 01:11N 37°57' W 122°31'0 0.4
2018-Aug-21 01:03N 37°57' W 122°30'0 0.1
2018-Aug-21 00:54N 37°57' W 122°30'923.5
2018-Aug-21 00:30N 37°49' W 122°23'1 1.3
2018-Aug-21 00:03N 37°49' W 122°23'236.8
2018-Aug-21 00:00N 37°50' W 122°24'815.1
2018-Aug-20 23:29N 37°57' W 122°30'1024.2
2018-Aug-20 23:03N 37°48' W 122°24'0 0.9
2018-Aug-20 22:59N 37°48' W 122°24'713.8
2018-Aug-20 22:31N 37°54' W 122°27'4 8.8
2018-Aug-20 22:02N 37°57' W 122°31'0 0.0
2018-Aug-20 21:59N 37°57' W 122°31'0 0.0
2018-Aug-20 20:53N 37°57' W 122°31'1 0.2
2018-Aug-20 16:37N 37°56' W 122°30'321.5
2018-Aug-20 16:30N 37°55' W 122°27'716.7
2018-Aug-20 16:03N 37°48' W 122°24'0 0.0
2018-Aug-20 16:00N 37°48' W 122°24'917.5
2018-Aug-20 15:30N 37°56' W 122°28'1 2.9
2018-Aug-20 15:03N 37°56' W 122°30'110.4
2018-Aug-20 15:00N 37°56' W 122°29'918.6
2018-Aug-20 14:30N 37°48' W 122°24'1015.0
2018-Aug-20 13:50N 37°57' W 122°30'929.5
2018-Aug-20 13:31N 37°49' W 122°23'613.4
2018-Aug-20 13:03N 37°54' W 122°27'237.2
2018-Aug-20 13:00N 37°56' W 122°28'2 4.0
2018-Aug-20 12:28N 37°57' W 122°31'  
2018-Aug-18 01:02N 37°57' W 122°30'0 0.3
2018-Aug-18 01:00N 37°57' W 122°30'1021.0
2018-Aug-18 00:30N 37°48' W 122°24'4 8.4
2018-Aug-18 00:00N 37°52' W 122°25'713.0
2018-Aug-17 23:30N 37°57' W 122°30'1021.2
2018-Aug-17 23:00N 37°48' W 122°24'714.0
2018-Aug-17 22:30N 37°54' W 122°27'4 6.5
2018-Aug-17 21:55N 37°57' W 122°31'0 0.0
2018-Aug-17 21:28N 37°57' W 122°31'0 0.0
2018-Aug-17 20:56N 37°57' W 122°31'0 0.0
2018-Aug-17 19:25N 37°57' W 122°31'0 0.0
2018-Aug-17 19:00N 37°57' W 122°31'0 0.0
2018-Aug-17 18:27N 37°57' W 122°31'0 0.0
2018-Aug-17 17:46N 37°57' W 122°31'0 0.0
2018-Aug-17 17:26N 37°57' W 122°31'0 0.1
2018-Aug-17 17:00N 37°57' W 122°30'1021.1
2018-Aug-17 16:30N 37°48' W 122°24'1019.1
2018-Aug-17 15:59N 37°56' W 122°30'0 0.1
2018-Aug-17 15:29N 37°56' W 122°30'1020.6
2018-Aug-17 15:00N 37°48' W 122°24'1019.1
2018-Aug-17 14:28N 37°57' W 122°30'1 0.0
2018-Aug-17 02:44N 37°56' W 122°30'628.0
2018-Aug-17 02:31N 37°52' W 122°24'1 2.0
2018-Aug-17 02:01N 37°51' W 122°25'714.3
2018-Aug-17 01:29N 37°57' W 122°30'1020.7
2018-Aug-17 00:59N 37°48' W 122°24'5 9.5
2018-Aug-17 00:30N 37°52' W 122°25'612.2
2018-Aug-17 00:00N 37°57' W 122°30'1021.4
2018-Aug-16 23:31N 37°48' W 122°24'4 8.0
2018-Aug-16 23:00N 37°52' W 122°25'713.2
2018-Aug-16 22:30N 37°57' W 122°30'1020.3
2018-Aug-16 22:00N 37°48' W 122°24'917.9
2018-Aug-16 21:30N 37°56' W 122°28'2 4.2
2018-Aug-16 21:01N 37°57' W 122°31'0 0.0
2018-Aug-16 20:31N 37°57' W 122°31'0 0.0
2018-Aug-16 20:01N 37°57' W 122°31'1020.9
2018-Aug-16 19:31N 37°48' W 122°23'3 6.9
2018-Aug-16 19:01N 37°51' W 122°24'713.7
2018-Aug-16 18:29N 37°57' W 122°30'1020.8
2018-Aug-16 18:01N 37°49' W 122°23'4 7.2
2018-Aug-16 17:31N 37°52' W 122°25'712.9
2018-Aug-16 17:00N 37°57' W 122°30'4 7.3
2018-Aug-16 16:31N 37°55' W 122°27'714.5
2018-Aug-16 16:01N 37°48' W 122°24'1019.1
2018-Aug-16 15:30N 37°56' W 122°30'0 0.4
2018-Aug-16 15:00N 37°56' W 122°29'1019.3
2018-Aug-16 14:31N 37°48' W 122°24'1020.9
2018-Aug-16 14:00N 37°57' W 122°30'816.2
2018-Aug-16 13:31N 37°51' W 122°24'510.5
2018-Aug-16 13:01N 37°55' W 122°27'3 5.9
2018-Aug-16 12:30N 37°57' W 122°31'0 0.0
2018-Aug-16 00:51N 37°56' W 122°30'927.9
2018-Aug-16 00:30N 37°49' W 122°23'1 1.3
2018-Aug-16 00:00N 37°48' W 122°23'1020.6
2018-Aug-15 23:31N 37°57' W 122°30'1020.9
2018-Aug-15 23:00N 37°48' W 122°24'714.6
2018-Aug-15 22:30N 37°55' W 122°27'4 4.8
2018-Aug-15 21:46N 37°57' W 122°31'0 0.0
2018-Aug-15 21:27N 37°57' W 122°31'0 0.0
2018-Aug-15 20:56N 37°57' W 122°31'0 0.0
2018-Aug-15 20:28N 37°57' W 122°31'0 0.0
2018-Aug-15 19:58N 37°57' W 122°31'0 0.0
2018-Aug-15 19:30N 37°57' W 122°31'0 0.0
2018-Aug-15 18:52N 37°57' W 122°31'0 0.0
2018-Aug-15 18:30N 37°57' W 122°31'0 0.0
2018-Aug-15 17:50N 37°57' W 122°31'0 0.1
2018-Aug-15 17:29N 37°57' W 122°31'0 0.0
2018-Aug-15 17:00N 37°57' W 122°31'1121.0
2018-Aug-15 16:30N 37°48' W 122°24'1019.1
2018-Aug-15 15:59N 37°56' W 122°30'0 0.9
2018-Aug-15 15:28N 37°56' W 122°29'920.6
2018-Aug-15 15:00N 37°48' W 122°24'1020.8
2018-Aug-15 14:30N 37°57' W 122°30'0 0.0
2018-Aug-15 04:22N 37°57' W 122°31'1 3.7
2018-Aug-15 04:00N 37°56' W 122°29'1 0.5
2018-Aug-15 01:21N 37°57' W 122°31'0 0.2
2018-Aug-15 01:00N 37°57' W 122°30'1020.1
2018-Aug-15 00:30N 37°48' W 122°23'1 2.2
2018-Aug-15 00:01N 37°49' W 122°24'917.6
2018-Aug-14 23:30N 37°57' W 122°30'1020.9
2018-Aug-14 23:00N 37°48' W 122°24'5 9.2
2018-Aug-14 22:31N 37°52' W 122°25'612.6
2018-Aug-14 22:01N 37°57' W 122°31'0 0.0
2018-Aug-14 21:30N 37°57' W 122°31'0 0.0
2018-Aug-14 20:59N 37°57' W 122°31'0 0.0
2018-Aug-14 20:31N 37°57' W 122°31'0 0.0
2018-Aug-14 20:00N 37°57' W 122°31'0 0.0
2018-Aug-14 19:30N 37°57' W 122°31'0 0.0
2018-Aug-14 19:00N 37°57' W 122°31'0 0.0
2018-Aug-14 18:29N 37°57' W 122°31'0 0.0
2018-Aug-14 18:00N 37°57' W 122°31'0 0.3
2018-Aug-14 17:31N 37°57' W 122°30'0 0.5
2018-Aug-14 16:58N 37°56' W 122°30'1022.4
2018-Aug-14 16:30N 37°48' W 122°24'1017.8
2018-Aug-14 15:56N 37°57' W 122°30'3 6.1
2018-Aug-14 15:30N 37°55' W 122°27'816.7
2018-Aug-14 15:01N 37°48' W 122°23'1020.5
2018-Aug-14 14:30N 37°57' W 122°30'0 0.1
2018-Aug-14 14:00N 37°57' W 122°31'0 0.0
2018-Aug-14 03:18N 37°57' W 122°31'0 0.0
2018-Aug-14 02:59N 37°57' W 122°31'0 0.0
2018-Aug-14 02:30N 37°57' W 122°31'0 0.0
2018-Aug-14 02:00N 37°57' W 122°31'0 0.0
2018-Aug-14 01:30N 37°57' W 122°31'0 0.1
2018-Aug-14 01:00N 37°57' W 122°30'1020.8
2018-Aug-14 00:30N 37°48' W 122°23'5 9.5
2018-Aug-14 00:01N 37°53' W 122°25'5 9.9
2018-Aug-13 23:29N 37°56' W 122°30'1020.9
2018-Aug-13 23:00N 37°48' W 122°24'1 2.2
2018-Aug-13 22:31N 37°49' W 122°23'1010.3
2018-Aug-13 21:35N 37°57' W 122°30'1 3.7
2018-Aug-13 21:20N 37°56' W 122°29'1 0.3
2018-Aug-13 17:27N 37°57' W 122°31'1 1.5
2018-Aug-13 16:56N 37°56' W 122°30'1022.6
2018-Aug-13 16:30N 37°48' W 122°24'1017.8
2018-Aug-13 15:55N 37°57' W 122°30'2 5.3
2018-Aug-13 15:29N 37°56' W 122°28'917.5
2018-Aug-13 15:00N 37°48' W 122°24'1020.6
2018-Aug-13 14:30N 37°57' W 122°30'  
2018-Aug-11 04:17N 37°57' W 122°31'1 3.3
2018-Aug-11 04:01N 37°56' W 122°30'1019.3
2018-Aug-11 03:30N 37°48' W 122°24'1 2.2
2018-Aug-11 02:59N 37°47' W 122°23'0 0.0
2018-Aug-11 02:30N 37°47' W 122°23'0 0.0
2018-Aug-11 02:01N 37°47' W 122°23'1019.1
2018-Aug-11 01:31N 37°55' W 122°28'  
Track history (hours):
 
Tides and Currents Weather Stations Pressure Air Temp Water Temp Dewpoint Dewpoint Depression Visibility Wind Speed Wind Dir Waves Ship Positions

Napa

Owner: Golden Gate Bridge Hwy. and Transportation District, San Francisco, CA. More information available from US FCC via Universal Licensing System and Coast Guard Vessel Documentation Center.

Last reported at 2018-Aug-21 01:11 UTC. Time now 2018-Aug-21 04:19 UTC.
Position N 37°57' W 122°31'.

Length 38 m; draft 0.15 m.

Type: Passenger vessel. MMSI: 36677150.

Date/timePositionNaut miles runAvg speedWind from/ knotsBaromVisibWave heightAir tempDewpointWater temp
2018-Aug-21 01:11N 37°57' W 122°31'0 0.4
2018-Aug-21 01:03N 37°57' W 122°30'0 0.1
2018-Aug-21 00:54N 37°57' W 122°30'923.5
2018-Aug-21 00:30N 37°49' W 122°23'1 1.3
2018-Aug-21 00:03N 37°49' W 122°23'236.8
2018-Aug-21 00:00N 37°50' W 122°24'815.1
2018-Aug-20 23:29N 37°57' W 122°30'1024.2
2018-Aug-20 23:03N 37°48' W 122°24'0 0.9
2018-Aug-20 22:59N 37°48' W 122°24'713.8
2018-Aug-20 22:31N 37°54' W 122°27'4 8.8
2018-Aug-20 22:02N 37°57' W 122°31'0 0.0
2018-Aug-20 21:59N 37°57' W 122°31'0 0.0
2018-Aug-20 20:53N 37°57' W 122°31'1 0.2
2018-Aug-20 16:37N 37°56' W 122°30'321.5
2018-Aug-20 16:30N 37°55' W 122°27'716.7
2018-Aug-20 16:03N 37°48' W 122°24'0 0.0
2018-Aug-20 16:00N 37°48' W 122°24'917.5
2018-Aug-20 15:30N 37°56' W 122°28'1 2.9
2018-Aug-20 15:03N 37°56' W 122°30'110.4
2018-Aug-20 15:00N 37°56' W 122°29'918.6
2018-Aug-20 14:30N 37°48' W 122°24'1015.0
2018-Aug-20 13:50N 37°57' W 122°30'929.5
2018-Aug-20 13:31N 37°49' W 122°23'613.4
2018-Aug-20 13:03N 37°54' W 122°27'237.2
2018-Aug-20 13:00N 37°56' W 122°28'2 4.0
2018-Aug-20 12:28N 37°57' W 122°31'  
2018-Aug-18 01:02N 37°57' W 122°30'0 0.3
2018-Aug-18 01:00N 37°57' W 122°30'1021.0
2018-Aug-18 00:30N 37°48' W 122°24'4 8.4
2018-Aug-18 00:00N 37°52' W 122°25'713.0
2018-Aug-17 23:30N 37°57' W 122°30'1021.2
2018-Aug-17 23:00N 37°48' W 122°24'714.0
2018-Aug-17 22:30N 37°54' W 122°27'4 6.5
2018-Aug-17 21:55N 37°57' W 122°31'0 0.0
2018-Aug-17 21:28N 37°57' W 122°31'0 0.0
2018-Aug-17 20:56N 37°57' W 122°31'0 0.0
2018-Aug-17 19:25N 37°57' W 122°31'0 0.0
2018-Aug-17 19:00N 37°57' W 122°31'0 0.0
2018-Aug-17 18:27N 37°57' W 122°31'0 0.0
2018-Aug-17 17:46N 37°57' W 122°31'0 0.0
2018-Aug-17 17:26N 37°57' W 122°31'0 0.1
2018-Aug-17 17:00N 37°57' W 122°30'1021.1
2018-Aug-17 16:30N 37°48' W 122°24'1019.1
2018-Aug-17 15:59N 37°56' W 122°30'0 0.1
2018-Aug-17 15:29N 37°56' W 122°30'1020.6
2018-Aug-17 15:00N 37°48' W 122°24'1019.1
2018-Aug-17 14:28N 37°57' W 122°30'1 0.0
2018-Aug-17 02:44N 37°56' W 122°30'628.0
2018-Aug-17 02:31N 37°52' W 122°24'1 2.0
2018-Aug-17 02:01N 37°51' W 122°25'714.3
2018-Aug-17 01:29N 37°57' W 122°30'1020.7
2018-Aug-17 00:59N 37°48' W 122°24'5 9.5
2018-Aug-17 00:30N 37°52' W 122°25'612.2
2018-Aug-17 00:00N 37°57' W 122°30'1021.4
2018-Aug-16 23:31N 37°48' W 122°24'4 8.0
2018-Aug-16 23:00N 37°52' W 122°25'713.2
2018-Aug-16 22:30N 37°57' W 122°30'1020.3
2018-Aug-16 22:00N 37°48' W 122°24'917.9
2018-Aug-16 21:30N 37°56' W 122°28'2 4.2
2018-Aug-16 21:01N 37°57' W 122°31'0 0.0
2018-Aug-16 20:31N 37°57' W 122°31'0 0.0
2018-Aug-16 20:01N 37°57' W 122°31'1020.9
2018-Aug-16 19:31N 37°48' W 122°23'3 6.9
2018-Aug-16 19:01N 37°51' W 122°24'713.7
2018-Aug-16 18:29N 37°57' W 122°30'1020.8
2018-Aug-16 18:01N 37°49' W 122°23'4 7.2
2018-Aug-16 17:31N 37°52' W 122°25'712.9
2018-Aug-16 17:00N 37°57' W 122°30'4 7.3
2018-Aug-16 16:31N 37°55' W 122°27'714.5
2018-Aug-16 16:01N 37°48' W 122°24'1019.1
2018-Aug-16 15:30N 37°56' W 122°30'0 0.4
2018-Aug-16 15:00N 37°56' W 122°29'1019.3
2018-Aug-16 14:31N 37°48' W 122°24'1020.9
2018-Aug-16 14:00N 37°57' W 122°30'816.2
2018-Aug-16 13:31N 37°51' W 122°24'510.5
2018-Aug-16 13:01N 37°55' W 122°27'3 5.9
2018-Aug-16 12:30N 37°57' W 122°31'0 0.0
2018-Aug-16 00:51N 37°56' W 122°30'927.9
2018-Aug-16 00:30N 37°49' W 122°23'1 1.3
2018-Aug-16 00:00N 37°48' W 122°23'1020.6
2018-Aug-15 23:31N 37°57' W 122°30'1020.9
2018-Aug-15 23:00N 37°48' W 122°24'714.6
2018-Aug-15 22:30N 37°55' W 122°27'4 4.8
2018-Aug-15 21:46N 37°57' W 122°31'0 0.0
2018-Aug-15 21:27N 37°57' W 122°31'0 0.0
2018-Aug-15 20:56N 37°57' W 122°31'0 0.0
2018-Aug-15 20:28N 37°57' W 122°31'0 0.0
2018-Aug-15 19:58N 37°57' W 122°31'0 0.0
2018-Aug-15 19:30N 37°57' W 122°31'0 0.0
2018-Aug-15 18:52N 37°57' W 122°31'0 0.0
2018-Aug-15 18:30N 37°57' W 122°31'0 0.0
2018-Aug-15 17:50N 37°57' W 122°31'0 0.1
2018-Aug-15 17:29N 37°57' W 122°31'0 0.0
2018-Aug-15 17:00N 37°57' W 122°31'1121.0
2018-Aug-15 16:30N 37°48' W 122°24'1019.1
2018-Aug-15 15:59N 37°56' W 122°30'0 0.9
2018-Aug-15 15:28N 37°56' W 122°29'920.6
2018-Aug-15 15:00N 37°48' W 122°24'1020.8
2018-Aug-15 14:30N 37°57' W 122°30'0 0.0
2018-Aug-15 04:22N 37°57' W 122°31'1 3.7
2018-Aug-15 04:00N 37°56' W 122°29'1 0.5
2018-Aug-15 01:21N 37°57' W 122°31'0 0.2
2018-Aug-15 01:00N 37°57' W 122°30'1020.1
2018-Aug-15 00:30N 37°48' W 122°23'1 2.2
2018-Aug-15 00:01N 37°49' W 122°24'917.6
2018-Aug-14 23:30N 37°57' W 122°30'1020.9
2018-Aug-14 23:00N 37°48' W 122°24'5 9.2
2018-Aug-14 22:31N 37°52' W 122°25'612.6
2018-Aug-14 22:01N 37°57' W 122°31'0 0.0
2018-Aug-14 21:30N 37°57' W 122°31'0 0.0
2018-Aug-14 20:59N 37°57' W 122°31'0 0.0
2018-Aug-14 20:31N 37°57' W 122°31'0 0.0
2018-Aug-14 20:00N 37°57' W 122°31'0 0.0
2018-Aug-14 19:30N 37°57' W 122°31'0 0.0
2018-Aug-14 19:00N 37°57' W 122°31'0 0.0
2018-Aug-14 18:29N 37°57' W 122°31'0 0.0
2018-Aug-14 18:00N 37°57' W 122°31'0 0.3
2018-Aug-14 17:31N 37°57' W 122°30'0 0.5
2018-Aug-14 16:58N 37°56' W 122°30'1022.4
2018-Aug-14 16:30N 37°48' W 122°24'1017.8
2018-Aug-14 15:56N 37°57' W 122°30'3 6.1
2018-Aug-14 15:30N 37°55' W 122°27'816.7
2018-Aug-14 15:01N 37°48' W 122°23'1020.5
2018-Aug-14 14:30N 37°57' W 122°30'0 0.1
2018-Aug-14 14:00N 37°57' W 122°31'0 0.0
2018-Aug-14 03:18N 37°57' W 122°31'0 0.0
2018-Aug-14 02:59N 37°57' W 122°31'0 0.0
2018-Aug-14 02:30N 37°57' W 122°31'0 0.0
2018-Aug-14 02:00N 37°57' W 122°31'0 0.0
2018-Aug-14 01:30N 37°57' W 122°31'0 0.1
2018-Aug-14 01:00N 37°57' W 122°30'1020.8
2018-Aug-14 00:30N 37°48' W 122°23'5 9.5
2018-Aug-14 00:01N 37°53' W 122°25'5 9.9
2018-Aug-13 23:29N 37°56' W 122°30'1020.9
2018-Aug-13 23:00N 37°48' W 122°24'1 2.2
2018-Aug-13 22:31N 37°49' W 122°23'1010.3
2018-Aug-13 21:35N 37°57' W 122°30'1 3.7
2018-Aug-13 21:20N 37°56' W 122°29'1 0.3
2018-Aug-13 17:27N 37°57' W 122°31'1 1.5
2018-Aug-13 16:56N 37°56' W 122°30'1022.6
2018-Aug-13 16:30N 37°48' W 122°24'1017.8
2018-Aug-13 15:55N 37°57' W 122°30'2 5.3
2018-Aug-13 15:29N 37°56' W 122°28'917.5
2018-Aug-13 15:00N 37°48' W 122°24'1020.6
2018-Aug-13 14:30N 37°57' W 122°30'  
2018-Aug-11 04:17N 37°57' W 122°31'1 3.3
2018-Aug-11 04:01N 37°56' W 122°30'1019.3
2018-Aug-11 03:30N 37°48' W 122°24'1 2.2
2018-Aug-11 02:59N 37°47' W 122°23'0 0.0
2018-Aug-11 02:30N 37°47' W 122°23'0 0.0
2018-Aug-11 02:01N 37°47' W 122°23'1019.1
2018-Aug-11 01:31N 37°55' W 122°28'  

Dump ship's entire track history